createdAt,value
2018-08-19T00:02:17.446Z,14.44
2018-08-19T00:05:05.671Z,14.39
2018-08-19T00:07:34.989Z,14.44
2018-08-19T00:10:04.758Z,14.43
2018-08-19T00:12:39.404Z,14.37
2018-08-19T00:15:08.667Z,14.47
2018-08-19T00:17:37.916Z,14.31
2018-08-19T00:20:11.866Z,14.24
2018-08-19T00:22:41.262Z,14.26
2018-08-19T00:25:30.199Z,14.25
2018-08-19T00:27:59.526Z,14.14
2018-08-19T00:30:30.224Z,14.10
2018-08-19T00:32:59.682Z,14.25
2018-08-19T00:35:29.446Z,14.14
2018-08-19T00:37:58.886Z,14.06
2018-08-19T00:40:28.126Z,13.97
2018-08-19T00:42:57.684Z,14.03
2018-08-19T00:45:28.463Z,14.00
2018-08-19T00:47:57.716Z,13.95
2018-08-19T00:50:26.971Z,13.89
2018-08-19T00:52:56.494Z,13.88
2018-08-19T00:55:26.038Z,13.91
2018-08-19T00:57:58.659Z,13.97
2018-08-19T01:00:29.164Z,13.86
2018-08-19T01:02:58.392Z,13.85
2018-08-19T01:05:27.630Z,13.89
2018-08-19T01:07:56.874Z,13.85
2018-08-19T01:10:26.137Z,13.77
2018-08-19T01:12:55.379Z,13.71
2018-08-19T01:15:24.644Z,13.63
2018-08-19T01:17:53.901Z,13.59
2018-08-19T01:20:23.347Z,13.58
2018-08-19T01:22:52.582Z,13.54
2018-08-19T01:25:21.835Z,13.48
2018-08-19T01:27:52.411Z,13.43
2018-08-19T01:30:25.193Z,13.40
2018-08-19T01:32:54.478Z,13.47
2018-08-19T01:35:32.458Z,13.46
2018-08-19T01:38:01.711Z,13.36
2018-08-19T01:40:32.063Z,13.73
2018-08-19T01:43:01.318Z,13.53
2018-08-19T01:45:30.556Z,13.51
2018-08-19T01:47:59.811Z,13.50
2018-08-19T01:50:29.047Z,13.54
2018-08-19T01:52:58.283Z,13.34
2018-08-19T01:55:27.527Z,13.34
2018-08-19T01:57:57.320Z,13.29
2018-08-19T02:00:26.549Z,13.24
2018-08-19T02:02:58.943Z,13.27
2018-08-19T02:05:28.225Z,13.24
2018-08-19T02:07:59.529Z,13.28
2018-08-19T02:10:30.057Z,13.30
2018-08-19T02:12:59.695Z,13.29
2018-08-19T02:15:30.089Z,13.21
2018-08-19T02:18:02.465Z,13.34
2018-08-19T02:20:34.942Z,13.55
2018-08-19T02:23:06.106Z,13.56
2018-08-19T02:25:42.539Z,13.41
2018-08-19T02:28:12.471Z,13.24
2018-08-19T02:30:48.762Z,13.22
2018-08-19T02:33:17.978Z,13.20
2018-08-19T02:35:55.264Z,13.19
2018-08-19T02:38:24.985Z,13.12
2018-08-19T02:40:54.824Z,13.05
2018-08-19T02:43:24.272Z,13.14
2018-08-19T02:45:53.512Z,13.14
2018-08-19T02:48:45.339Z,13.08
2018-08-19T02:51:15.619Z,12.97
2018-08-19T02:53:45.937Z,12.93
2018-08-19T02:56:16.087Z,12.91
2018-08-19T02:58:46.320Z,12.87
2018-08-19T03:01:16.520Z,12.79
2018-08-19T03:03:45.750Z,12.74
2018-08-19T03:06:14.986Z,12.66
2018-08-19T03:08:52.743Z,12.62
2018-08-19T03:11:22.385Z,12.66
2018-08-19T03:13:51.619Z,12.61
2018-08-19T03:16:20.857Z,12.65
2018-08-19T03:18:52.055Z,12.83
2018-08-19T03:21:22.394Z,12.92
2018-08-19T03:23:53.039Z,12.70
2018-08-19T03:26:22.308Z,12.66
2018-08-19T03:28:51.540Z,12.63
2018-08-19T03:31:20.787Z,12.57
2018-08-19T03:33:50.009Z,12.52
2018-08-19T03:36:19.255Z,12.59
2018-08-19T03:38:49.730Z,12.54
2018-08-19T03:41:18.965Z,12.52
2018-08-19T03:43:53.282Z,12.50
2018-08-19T03:46:22.530Z,12.74
2018-08-19T03:48:51.835Z,12.54
2018-08-19T03:51:21.039Z,12.52
2018-08-19T03:53:50.265Z,12.47
2018-08-19T03:56:24.538Z,12.43
2018-08-19T03:58:57.543Z,12.39
2018-08-19T04:01:43.337Z,12.39
2018-08-19T04:04:14.423Z,12.41
2018-08-19T04:06:44.023Z,12.34
2018-08-19T04:09:13.262Z,12.28
2018-08-19T04:11:42.522Z,12.25
2018-08-19T04:14:27.597Z,12.24
2018-08-19T04:16:59.055Z,12.25
2018-08-19T04:19:28.855Z,12.27
2018-08-19T04:22:02.853Z,12.32
2018-08-19T04:24:32.449Z,12.47
2018-08-19T04:27:08.536Z,12.52
2018-08-19T04:29:38.894Z,12.43
2018-08-19T04:32:16.201Z,12.41
2018-08-19T04:34:45.422Z,12.44
2018-08-19T04:37:14.675Z,12.48
2018-08-19T04:39:43.920Z,12.76
2018-08-19T04:42:13.161Z,12.91
2018-08-19T04:44:42.544Z,13.14
2018-08-19T04:47:27.663Z,13.23
2018-08-19T04:49:57.035Z,13.08
2018-08-19T04:52:26.910Z,13.14
2018-08-19T04:54:56.940Z,13.16
2018-08-19T04:57:26.153Z,13.43
2018-08-19T04:59:55.423Z,13.46
2018-08-19T05:02:24.882Z,13.38
2018-08-19T05:04:55.088Z,13.47
2018-08-19T05:07:24.317Z,13.53
2018-08-19T05:09:53.555Z,13.61
2018-08-19T05:12:22.821Z,13.77
2018-08-19T05:14:52.083Z,13.96
2018-08-19T05:17:21.302Z,13.95
2018-08-19T05:19:50.872Z,14.17
2018-08-19T05:22:20.163Z,14.37
2018-08-19T05:24:49.363Z,14.58
2018-08-19T05:27:18.611Z,14.87
2018-08-19T05:29:47.860Z,16.41
2018-08-19T05:32:17.107Z,18.05
2018-08-19T05:34:46.316Z,20.69
2018-08-19T05:37:15.551Z,22.33
2018-08-19T05:39:49.891Z,23.60
2018-08-19T05:42:19.139Z,23.79
2018-08-19T05:44:48.391Z,22.58
2018-08-19T05:47:17.758Z,23.61
2018-08-19T05:49:47.898Z,25.39
2018-08-19T05:52:21.958Z,26.75
2018-08-19T05:54:56.347Z,27.25
2018-08-19T05:57:25.575Z,28.50
2018-08-19T05:59:55.854Z,28.95
2018-08-19T06:02:46.823Z,29.31
2018-08-19T06:05:16.067Z,28.53
2018-08-19T06:07:45.315Z,30.03
2018-08-19T06:10:14.562Z,29.48
2018-08-19T06:12:43.794Z,28.82
2018-08-19T06:15:13.040Z,29.10
2018-08-19T06:17:42.270Z,27.61
2018-08-19T06:20:11.528Z,28.48
2018-08-19T06:22:41.489Z,29.24
2018-08-19T06:25:11.813Z,29.40
2018-08-19T06:27:44.796Z,30.06
2018-08-19T06:30:14.681Z,31.42
2018-08-19T06:32:43.931Z,31.27
2018-08-19T06:35:13.247Z,30.44
2018-08-19T06:37:42.539Z,30.12
2018-08-19T06:40:13.787Z,30.23
2018-08-19T06:42:43.010Z,30.27
2018-08-19T06:45:12.898Z,30.68
2018-08-19T06:47:42.210Z,31.46
2018-08-19T06:50:22.206Z,32.57
2018-08-19T06:52:51.575Z,32.61
2018-08-19T06:55:20.946Z,33.44
2018-08-19T06:57:50.298Z,32.87
2018-08-19T07:00:26.715Z,32.69
2018-08-19T07:02:57.558Z,33.26
2018-08-19T07:05:26.854Z,33.61
2018-08-19T07:07:56.124Z,35.92
2018-08-19T07:10:31.812Z,35.87
2018-08-19T07:13:06.301Z,33.89
2018-08-19T07:15:36.706Z,33.33
2018-08-19T07:18:07.172Z,33.17
2018-08-19T07:20:37.270Z,35.24
2018-08-19T07:23:06.892Z,36.22
2018-08-19T07:25:38.335Z,36.09
2018-08-19T07:28:09.071Z,34.28
2018-08-19T07:30:38.400Z,34.87
2018-08-19T07:33:07.858Z,35.52
2018-08-19T07:35:37.304Z,35.06
2018-08-19T07:38:06.535Z,35.45
2018-08-19T07:40:35.801Z,35.65
2018-08-19T07:43:05.136Z,35.56
2018-08-19T07:45:34.367Z,36.32
2018-08-19T07:48:03.622Z,35.50
2018-08-19T07:50:32.853Z,35.24
2018-08-19T07:53:02.092Z,35.02
2018-08-19T07:55:31.328Z,35.84
2018-08-19T07:58:00.550Z,35.58
2018-08-19T08:00:35.038Z,35.54
2018-08-19T08:03:04.283Z,38.01
2018-08-19T08:05:38.748Z,37.53
2018-08-19T08:08:09.022Z,36.01
2018-08-19T08:10:39.150Z,36.08
2018-08-19T08:13:10.580Z,36.11
2018-08-19T08:15:49.747Z,36.72
2018-08-19T08:18:18.999Z,36.56
2018-08-19T08:20:48.258Z,35.11
2018-08-19T08:23:22.998Z,35.70
2018-08-19T08:25:52.227Z,35.71
2018-08-19T08:28:21.636Z,35.96
2018-08-19T08:30:50.926Z,38.40
2018-08-19T08:33:20.171Z,37.40
2018-08-19T08:35:55.378Z,37.19
2018-08-19T08:38:24.656Z,37.31
2018-08-19T08:40:54.148Z,35.77
2018-08-19T08:43:23.528Z,36.29
2018-08-19T08:45:55.097Z,37.64
2018-08-19T08:48:24.346Z,37.74
2018-08-19T08:50:53.548Z,37.11
2018-08-19T08:53:25.541Z,36.34
2018-08-19T08:55:54.639Z,34.51
2018-08-19T08:58:23.904Z,34.38
2018-08-19T09:00:53.121Z,34.96
2018-08-19T09:03:22.427Z,35.56
2018-08-19T09:05:51.604Z,34.30
2018-08-19T09:08:20.827Z,34.52
2018-08-19T09:10:50.579Z,35.49
2018-08-19T09:13:19.819Z,34.84
2018-08-19T09:15:49.084Z,34.95
2018-08-19T09:18:18.314Z,35.92
2018-08-19T09:20:47.591Z,37.32
2018-08-19T09:23:16.910Z,36.49
2018-08-19T09:25:46.057Z,36.29
2018-08-19T09:28:15.311Z,34.16
2018-08-19T09:30:45.242Z,36.62
2018-08-19T09:33:14.912Z,34.78
2018-08-19T09:35:44.518Z,35.61
2018-08-19T09:38:22.311Z,36.01
2018-08-19T09:40:52.615Z,35.59
2018-08-19T09:43:21.702Z,33.59
2018-08-19T09:45:50.956Z,32.83
2018-08-19T09:48:20.175Z,33.22
2018-08-19T09:50:49.397Z,36.02
2018-08-19T09:53:18.637Z,36.38
2018-08-19T09:55:55.038Z,37.27
2018-08-19T09:58:24.290Z,35.78
2018-08-19T10:01:58.827Z,34.80
2018-08-19T10:04:28.248Z,38.79
2018-08-19T10:07:06.649Z,37.07
2018-08-19T10:09:35.896Z,34.93
2018-08-19T10:12:05.140Z,34.52
2018-08-19T10:14:34.373Z,33.98
2018-08-19T10:17:03.631Z,33.68
2018-08-19T10:19:32.933Z,33.69
2018-08-19T10:22:02.178Z,32.70
2018-08-19T10:24:32.545Z,33.50
2018-08-19T10:27:01.928Z,37.04
2018-08-19T10:29:31.170Z,35.60
2018-08-19T10:32:02.010Z,32.88
2018-08-19T10:34:35.607Z,34.25
2018-08-19T10:37:05.307Z,38.02
2018-08-19T10:39:34.551Z,36.02
2018-08-19T10:42:21.083Z,35.48
2018-08-19T10:44:51.439Z,33.18
2018-08-19T10:47:21.445Z,33.16
2018-08-19T10:50:10.432Z,37.40
2018-08-19T10:52:41.700Z,38.62
2018-08-19T10:55:12.082Z,35.35
2018-08-19T10:57:41.327Z,37.61
2018-08-19T11:00:21.217Z,39.31
2018-08-19T11:02:50.433Z,33.85
2018-08-19T11:05:19.666Z,34.84
2018-08-19T11:07:48.914Z,34.71
2018-08-19T11:10:19.959Z,35.21
2018-08-19T11:12:52.203Z,32.91
2018-08-19T11:15:36.091Z,33.54
2018-08-19T11:18:26.198Z,33.73
2018-08-19T11:21:00.381Z,36.55
2018-08-19T11:23:29.766Z,34.98
2018-08-19T11:25:59.304Z,34.19
2018-08-19T11:28:39.675Z,35.63
2018-08-19T11:31:24.210Z,33.00
2018-08-19T11:33:56.185Z,31.27
2018-08-19T11:36:31.860Z,34.08
2018-08-19T11:39:01.253Z,33.87
2018-08-19T11:41:32.960Z,34.35
2018-08-19T11:44:10.937Z,35.13
2018-08-19T11:46:40.215Z,34.15
2018-08-19T11:49:10.623Z,33.52
2018-08-19T11:51:57.023Z,31.77
2018-08-19T11:54:26.993Z,32.68
2018-08-19T11:57:14.044Z,34.41
2018-08-19T11:59:44.400Z,34.28
2018-08-19T12:02:20.723Z,35.52
2018-08-19T12:04:49.945Z,33.17
2018-08-19T12:07:19.679Z,32.48
2018-08-19T12:09:55.815Z,33.36
2018-08-19T12:12:45.178Z,33.68
2018-08-19T12:15:14.415Z,34.38
2018-08-19T12:17:43.974Z,35.54
2018-08-19T12:20:13.227Z,34.90
2018-08-19T12:22:43.857Z,35.79
2018-08-19T12:25:13.068Z,33.40
2018-08-19T12:27:42.405Z,35.15
2018-08-19T12:30:14.531Z,33.89
2018-08-19T12:32:43.776Z,33.07
2018-08-19T12:35:13.016Z,33.23
2018-08-19T12:37:42.309Z,32.73
2018-08-19T12:40:11.462Z,32.37
2018-08-19T12:42:45.968Z,33.99
2018-08-19T12:45:15.226Z,34.30
2018-08-19T12:47:44.455Z,34.72
2018-08-19T12:50:15.213Z,34.72
2018-08-19T12:52:44.439Z,33.76
2018-08-19T12:55:16.210Z,33.34
2018-08-19T12:57:45.860Z,33.39
2018-08-19T13:00:23.014Z,33.06
2018-08-19T13:02:52.875Z,31.81
2018-08-19T13:05:22.432Z,31.96
2018-08-19T13:07:51.805Z,30.84
2018-08-19T13:10:21.402Z,31.33
2018-08-19T13:12:58.219Z,31.85
2018-08-19T13:15:29.796Z,31.42
2018-08-19T13:17:59.212Z,31.26
2018-08-19T13:20:28.451Z,31.74
2018-08-19T13:23:01.015Z,31.66
2018-08-19T13:25:30.572Z,31.69
2018-08-19T13:27:59.811Z,31.76
2018-08-19T13:30:29.076Z,31.98
2018-08-19T13:32:58.345Z,32.03
2018-08-19T13:35:27.609Z,31.74
2018-08-19T13:37:56.860Z,31.76
2018-08-19T13:40:26.873Z,31.59
2018-08-19T13:42:56.122Z,31.63
2018-08-19T13:45:27.362Z,31.23
2018-08-19T13:47:56.465Z,31.44
2018-08-19T13:50:25.755Z,30.82
2018-08-19T13:52:55.026Z,30.44
2018-08-19T13:55:24.262Z,31.22
2018-08-19T13:57:53.512Z,31.31
2018-08-19T14:00:24.015Z,31.24
2018-08-19T14:02:53.295Z,30.98
2018-08-19T14:05:23.282Z,31.37
2018-08-19T14:07:52.520Z,31.34
2018-08-19T14:10:21.773Z,31.20
2018-08-19T14:12:51.010Z,30.53
2018-08-19T14:15:20.258Z,30.53
2018-08-19T14:17:50.330Z,30.25
2018-08-19T14:20:20.013Z,29.86
2018-08-19T14:22:49.901Z,30.26
2018-08-19T14:25:19.975Z,30.54
2018-08-19T14:27:49.550Z,30.54
2018-08-19T14:30:20.298Z,30.62
2018-08-19T14:32:50.620Z,30.38
2018-08-19T14:35:19.893Z,30.49
2018-08-19T14:37:49.118Z,29.99
2018-08-19T14:40:19.290Z,29.71
2018-08-19T14:42:48.380Z,29.47
2018-08-19T14:45:17.618Z,30.17
2018-08-19T14:47:46.876Z,29.92
2018-08-19T14:50:18.374Z,30.20
2018-08-19T14:52:47.612Z,30.14
2018-08-19T14:55:16.858Z,30.05
2018-08-19T14:57:46.063Z,29.40
2018-08-19T15:00:16.762Z,29.27
2018-08-19T15:02:45.998Z,29.14
2018-08-19T15:05:20.199Z,29.33
2018-08-19T15:07:49.774Z,29.21
2018-08-19T15:10:24.965Z,29.48
2018-08-19T15:12:54.436Z,29.64
2018-08-19T15:15:23.698Z,29.81
2018-08-19T15:17:59.838Z,29.45
2018-08-19T15:20:33.169Z,29.55
2018-08-19T15:23:17.654Z,29.81
2018-08-19T15:25:47.088Z,29.71
2018-08-19T15:28:17.059Z,29.34
2018-08-19T15:30:46.306Z,29.42
2018-08-19T15:33:16.125Z,29.03
2018-08-19T15:35:45.358Z,28.97
2018-08-19T15:38:14.593Z,28.54
2018-08-19T15:40:48.660Z,28.61
2018-08-19T15:43:17.872Z,28.70
2018-08-19T15:45:47.101Z,28.53
2018-08-19T15:48:16.367Z,28.52
2018-08-19T15:50:45.598Z,28.48
2018-08-19T15:53:17.009Z,28.85
2018-08-19T15:55:46.272Z,29.24
2018-08-19T15:58:15.565Z,29.35
2018-08-19T16:00:44.790Z,28.76
2018-08-19T16:03:14.012Z,28.73
2018-08-19T16:05:43.268Z,29.07
2018-08-19T16:08:12.498Z,29.15
2018-08-19T16:10:42.458Z,28.76
2018-08-19T16:13:12.510Z,28.48
2018-08-19T16:15:41.814Z,28.45
2018-08-19T16:18:11.035Z,28.23
2018-08-19T16:20:40.642Z,28.34
2018-08-19T16:23:10.111Z,28.58
2018-08-19T16:25:39.332Z,28.55
2018-08-19T16:28:08.599Z,28.20
2018-08-19T16:30:37.960Z,27.85
2018-08-19T16:33:07.199Z,27.76
2018-08-19T16:35:36.790Z,27.85
2018-08-19T16:38:06.301Z,27.68
2018-08-19T16:40:35.533Z,27.81
2018-08-19T16:43:05.795Z,27.88
2018-08-19T16:45:35.019Z,27.92
2018-08-19T16:48:04.275Z,28.04
2018-08-19T16:50:33.523Z,28.00
2018-08-19T16:53:02.741Z,28.15
2018-08-19T16:55:32.006Z,28.03
2018-08-19T16:58:07.950Z,28.01
2018-08-19T17:00:37.173Z,27.65
2018-08-19T17:03:33.967Z,27.48
2018-08-19T17:06:03.624Z,27.57
2018-08-19T17:08:33.014Z,27.54
2018-08-19T17:11:02.256Z,27.19
2018-08-19T17:13:31.547Z,26.84
2018-08-19T17:16:00.818Z,26.66
2018-08-19T17:18:30.277Z,26.66
2018-08-19T17:20:59.511Z,26.46
2018-08-19T17:23:28.722Z,26.39
2018-08-19T17:26:05.581Z,26.27
2018-08-19T17:28:34.777Z,26.18
2018-08-19T17:31:04.003Z,26.07
2018-08-19T17:33:33.226Z,25.96
2018-08-19T17:36:02.475Z,26.01
2018-08-19T17:38:34.801Z,25.89
2018-08-19T17:41:04.432Z,25.66
2018-08-19T17:43:38.983Z,25.46
2018-08-19T17:46:12.007Z,25.25
2018-08-19T17:48:42.191Z,25.05
2018-08-19T17:51:27.211Z,24.85
2018-08-19T17:53:56.444Z,24.60
2018-08-19T17:56:25.702Z,24.46
2018-08-19T17:58:54.955Z,24.29
2018-08-19T18:01:24.322Z,24.06
2018-08-19T18:03:53.537Z,23.78
2018-08-19T18:06:22.770Z,23.56
2018-08-19T18:08:52.791Z,23.46
2018-08-19T18:11:22.364Z,23.44
2018-08-19T18:13:51.583Z,23.62
2018-08-19T18:16:20.834Z,23.42
2018-08-19T18:18:50.082Z,23.25
2018-08-19T18:21:19.331Z,22.96
2018-08-19T18:23:49.447Z,22.77
2018-08-19T18:26:18.689Z,22.66
2018-08-19T18:28:48.781Z,22.41
2018-08-19T18:31:22.516Z,22.22
2018-08-19T18:33:58.958Z,22.00
2018-08-19T18:36:29.722Z,21.87
2018-08-19T18:38:59.402Z,21.88
2018-08-19T18:41:31.602Z,21.65
2018-08-19T18:44:02.867Z,21.45
2018-08-19T18:46:32.504Z,21.32
2018-08-19T18:49:13.304Z,21.31
2018-08-19T18:51:44.920Z,21.25
2018-08-19T18:54:20.802Z,21.30
2018-08-19T18:56:50.080Z,21.36
2018-08-19T18:59:19.322Z,21.31
2018-08-19T19:01:48.560Z,21.15
2018-08-19T19:04:17.767Z,21.09
2018-08-19T19:06:47.019Z,20.87
2018-08-19T19:09:16.235Z,20.63
2018-08-19T19:11:45.491Z,20.43
2018-08-19T19:14:19.175Z,20.73
2018-08-19T19:16:50.699Z,21.02
2018-08-19T19:19:20.203Z,20.69
2018-08-19T19:21:54.567Z,20.18
2018-08-19T19:24:39.530Z,19.97
2018-08-19T19:27:09.412Z,19.81
2018-08-19T19:29:38.650Z,19.81
2018-08-19T19:32:17.939Z,19.68
2018-08-19T19:34:47.158Z,19.90
2018-08-19T19:37:16.410Z,19.67
2018-08-19T19:39:45.830Z,19.53
2018-08-19T19:42:15.061Z,19.41
2018-08-19T19:44:44.308Z,19.80
2018-08-19T19:47:13.532Z,19.71
2018-08-19T19:49:47.986Z,19.68
2018-08-19T19:52:17.190Z,19.44
2018-08-19T19:54:46.414Z,19.63
2018-08-19T19:57:15.639Z,19.36
2018-08-19T19:59:44.869Z,19.38
2018-08-19T20:02:19.540Z,19.17
2018-08-19T20:04:48.778Z,18.99
2018-08-19T20:07:18.094Z,18.79
2018-08-19T20:09:47.319Z,18.89
2018-08-19T20:12:25.637Z,18.81
2018-08-19T20:14:54.880Z,18.96
2018-08-19T20:17:24.135Z,18.85
2018-08-19T20:19:53.383Z,18.66
2018-08-19T20:22:22.639Z,18.73
2018-08-19T20:24:51.866Z,18.46
2018-08-19T20:27:22.343Z,18.28
2018-08-19T20:29:53.533Z,18.37
2018-08-19T20:32:22.932Z,18.05
2018-08-19T20:34:52.424Z,18.00
2018-08-19T20:37:24.467Z,18.01
2018-08-19T20:39:54.225Z,17.88
2018-08-19T20:42:23.570Z,17.74
2018-08-19T20:44:52.816Z,17.75
2018-08-19T20:47:22.035Z,17.71
2018-08-19T20:49:51.432Z,17.69
2018-08-19T20:52:35.038Z,17.89
2018-08-19T20:55:04.300Z,17.65
2018-08-19T20:57:33.703Z,17.67
2018-08-19T21:00:03.042Z,17.72
2018-08-19T21:02:32.187Z,17.76
2018-08-19T21:05:01.418Z,17.49
2018-08-19T21:07:30.658Z,17.24
2018-08-19T21:10:00.911Z,17.51
2018-08-19T21:12:30.156Z,17.24
2018-08-19T21:14:59.558Z,17.32
2018-08-19T21:17:31.355Z,17.27
2018-08-19T21:20:00.753Z,17.21
2018-08-19T21:22:30.047Z,17.19
2018-08-19T21:24:59.263Z,17.08
2018-08-19T21:27:28.493Z,17.08
2018-08-19T21:29:57.776Z,17.27
2018-08-19T21:32:26.983Z,17.15
2018-08-19T21:34:56.969Z,16.98
2018-08-19T21:37:34.260Z,16.85
2018-08-19T21:40:04.464Z,16.75
2018-08-19T21:42:48.798Z,16.85
2018-08-19T21:45:18.019Z,16.68
2018-08-19T21:47:47.349Z,16.55
2018-08-19T21:50:16.576Z,16.54
2018-08-19T21:53:08.840Z,16.53
2018-08-19T21:55:41.381Z,16.51
2018-08-19T21:58:10.658Z,16.48
2018-08-19T22:00:42.769Z,16.45
2018-08-19T22:03:21.223Z,16.52
2018-08-19T22:05:52.552Z,16.47
2018-08-19T22:08:23.258Z,16.58
2018-08-19T22:10:52.541Z,16.46
2018-08-19T22:13:21.803Z,16.32
2018-08-19T22:15:51.052Z,16.34
2018-08-19T22:18:21.469Z,16.39
2018-08-19T22:21:13.578Z,16.32
2018-08-19T22:23:46.118Z,16.26
2018-08-19T22:26:16.393Z,16.24
2018-08-19T22:28:46.015Z,16.21
2018-08-19T22:31:26.445Z,16.23
2018-08-19T22:33:57.007Z,16.15
2018-08-19T22:36:26.666Z,16.37
2018-08-19T22:38:56.687Z,16.35
2018-08-19T22:41:29.370Z,16.36
2018-08-19T22:43:58.851Z,15.97
2018-08-19T22:46:28.549Z,15.84
2018-08-19T22:48:58.335Z,15.73
2018-08-19T22:51:33.111Z,15.70
2018-08-19T22:54:02.355Z,15.67
2018-08-19T22:56:31.594Z,15.78
2018-08-19T22:59:00.830Z,15.78
2018-08-19T23:01:35.299Z,15.75
2018-08-19T23:04:04.697Z,15.76
2018-08-19T23:06:34.289Z,15.80
2018-08-19T23:09:04.885Z,15.85
2018-08-19T23:11:39.234Z,15.86
2018-08-19T23:16:31.216Z,15.82
2018-08-19T23:19:00.449Z,15.96
2018-08-19T23:21:29.704Z,15.94
2018-08-19T23:23:58.939Z,15.72
2018-08-19T23:26:28.175Z,15.56
2018-08-19T23:28:57.420Z,15.53
2018-08-19T23:31:26.643Z,15.47
2018-08-19T23:33:55.882Z,15.73
2018-08-19T23:36:25.999Z,15.72
2018-08-19T23:38:55.253Z,15.54
2018-08-19T23:41:24.503Z,15.33
2018-08-19T23:43:53.723Z,15.24
2018-08-19T23:46:22.942Z,15.11
2018-08-19T23:48:52.212Z,15.16
2018-08-19T23:51:25.659Z,15.12
2018-08-19T23:53:55.080Z,15.12
2018-08-19T23:56:24.455Z,15.10
2018-08-19T23:58:53.699Z,15.07
